首页
METAR-TAF:

METAR-TAF

机场 :

特倫頓空軍基地

特伦顿, 安大略省, 加拿大

纬度: 44-07N, 经度: 077-32W, 海拔: 85米

当前天气观测

该预报发布于1小时和9分钟前的06:00 UTC
风速9节,风向西南
温度 23°C
湿度 89%
气压 1012 hPa
能見度: 16.1公里
多云层高于5000英尺
阴天层高于12000英尺
小阵雨

METAR: CYTR 170600Z 23009KT 10SM -SHRA BKN050 OVC120 23/21 A2989 RMK SC5AC3 SLP122

时间: 03:09 (07:09 UTC)

预报

该预报发布于1小时和39分钟前的05:30 UTC
预报有效从17日的 06点(UTC)到 18日的 06点(UTC)
风速8节,风向西南
能見度: 10公里
散云层高于1200英尺
多云层高于5000英尺
阴天层高于12000英尺
短暂存在
从 17日的 06点(UTC)到 17日的 09点(UTC)
能見度: 8.0公里
多云层高于2000英尺
阴天层高于5000英尺
小阵雨, 轻雾
从 17日的 0900点(UTC)
风速8节,风向西转西南
能見度: 10公里
多云层高于3000英尺
阴天层高于10000英尺
短暂存在
从 17日的 09点(UTC)到 17日的 15点(UTC)
能見度: 8.0公里
多云层高于1500英尺
阴天层高于3000英尺
小毛毛雨, 轻雾
从 17日的 1500点(UTC)
风速5节,风向西南
能見度: 10公里
散云层高于1500英尺
多云层高于5000英尺
小阵雨
几率 30%
从 17日的 16点(UTC)到 17日的 20点(UTC)
风速15节,风向多变,有时为25节阵风
能見度: 3.2公里
多云层高于1500英尺
阴天层高于3000英尺, 积雨云.
雷暴, 雨, 轻雾
从 17日的 2300点(UTC)
风速3节,风向多变
能見度: 10公里
少量云层高于2000英尺
散云层高于7000英尺

TAF: CYTR 170530Z 1706/1806 22008KT P6SM SCT012 BKN050 OVC120 TEMPO 1706/1709 5SM -SHRA BR BKN020 OVC050 FM170900 24008KT P6SM BKN030 OVC100 TEMPO 1709/1715 5SM -DZ BR BKN015 OVC030 FM171500 22005KT P6SM -SHRA SCT015 BKN050 PROB30 1716/1720 VRB15G25KT 2SM TSRA BR BKN015 OVC030CB FM172300 VRB03KT P6SM FEW020 SCT070 RMK NXT FCST BY 171200Z

超过4000个机场的气象观测和天气预报(METAR&TAF报告)。

可查询的气象台以黄色和红色小点在地图上表示。

将鼠标移到小点上方,可查看气象台名称。

然后点击查看天气观测和预报。

如需切换地图:点击带黑十字的绿色按钮放大地图;点击带横线的绿色按钮缩小地图;或者点击绿色箭头查看邻近地区的地图。


METAR-TAF: